Список аэропортов
Фактическая погода:

15 августа, 23:00
Температура: +23°C (+23.0*)
Ветер: восточный 3 м/с
Давление: *758 мм
Без существ. явл.
Время (МСК)Темп. СВетерВлажностьДавлениеОблачностьОсадки
21:00+29С, 5 м/с35%1011 гПаясно
22:00+28С, 4 м/с39%1011 гПаясно
23:00+26С, 3 м/с44%1011 гПаясно
16 августа
00:00+25С, 3 м/с50%1011 гПаясно
01:00+24С, 3 м/с52%1011 гПаясно
02:00+23С, 3 м/с54%1011 гПаясно
03:00+22С, 3 м/с56%1011 гПаясно
04:00+22С, 4 м/с54%1011 гПаясно
05:00+21С, 5 м/с52%1011 гПаясно
06:00+21СВ, 5 м/с51%1011 гПаясно
07:00+22СВ, 5 м/с47%1011 гПаясно
08:00+25СВ, 6 м/с40%1011 гПаясно
09:00+28СВ, 7 м/с29%1011 гПаясно
10:00+31СВ, 7 м/с22%1011 гПаясно
11:00+32СВ, 8 м/с21%1010 гПаясно
12:00+34СВ, 8 м/с20%1010 гПаясно
13:00+34СВ, 8 м/с19%1010 гПаясно
14:00+35СВ, 7 м/с17%1010 гПаоблачно
15:00+35СВ, 7 м/с16%1009 гПас прояснениями
16:00+36СВ, 7 м/с16%1009 гПас прояснениями
17:00+35СВ, 5 м/с17%1009 гПаоблачно
18:00+34СВ, 5 м/с19%1009 гПаоблачно
19:00+33С, 5 м/с24%1008 гПаоблачно
20:00+31С, 4 м/с31%1009 гПамалооблачно
21:00+28С, 4 м/с40%1009 гПаясно
22:00+27С, 3 м/с45%1009 гПаясно
23:00+26С, 3 м/с46%1009 гПаясно
17 августа
00:00+26С, 3 м/с45%1009 гПаясно
01:00+25С, 3 м/с45%1009 гПаясно
02:00+24С, 3 м/с46%1009 гПаясно
03:00+23СВ, 3 м/с48%1009 гПаясно
04:00+23СВ, 4 м/с46%1009 гПаясно
05:00+23СВ, 4 м/с46%1010 гПаясно
06:00+23СВ, 4 м/с47%1010 гПамалооблачно
07:00+23СВ, 4 м/с46%1010 гПаясно
08:00+26СВ, 4 м/с42%1010 гПаясно
09:00+29СВ, 4 м/с38%1010 гПаясно
10:00+31С, 5 м/с32%1010 гПаясно
11:00+33С, 6 м/с28%1010 гПаясно
12:00+34СВ, 7 м/с27%1010 гПаясно
13:00+35СВ, 6 м/с24%1009 гПаясно
14:00+35СВ, 6 м/с22%1009 гПаясно
15:00+35С, 6 м/с21%1008 гПаясно
16:00+35С, 7 м/с20%1008 гПаясно
17:00+35С, 7 м/с18%1008 гПаясно
18:00+34С, 6 м/с19%1008 гПаясно
19:00+33С, 5 м/с21%1008 гПаясно
20:00+30С, 4 м/с28%1009 гПаясно
21:00+28С, 3 м/с36%1009 гПаясно